Baltic Dart — MFBD8 — position and weather

sailwx.info

Track history (hours):
 
Tides and Currents Weather Stations Pressure Air Temp Water Temp Dewpoint Dewpoint Depression Visibility Wind Speed Wind Dir Waves Ship Positions

Baltic Dart

Last reported at 2018-May-19 09:59 UTC. Time now 2018-May-24 02:25 UTC.
Position N 37°44' W 025°40'.

Length 13 m.

Type: Sailing vessel. MMSI: 235115324.

Date/timePositionNaut miles runAvg speedWind from/ knotsBaromVisibWave heightAir tempDewpointWater temp
2018-May-19 09:59N 37°44' W 025°40'0 0.0
2018-May-19 09:29N 37°44' W 025°40'0 0.7
2018-May-19 09:00N 37°44' W 025°39'2 4.7
2018-May-19 08:30N 37°43' W 025°37'1 2.2
2018-May-19 08:00N 37°42' W 025°37'2 4.3
2018-May-19 07:30N 37°39' W 025°36'1 2.2
2018-May-19 07:00N 37°40' W 025°35'2 3.0
2018-May-19 06:30N 37°40' W 025°33'3 5.4
2018-May-19 06:00N 37°37' W 025°33'3 5.5
2018-May-19 05:30N 37°35' W 025°33'2 5.0
2018-May-19 05:00N 37°32' W 025°33'2 4.8
2018-May-19 04:30N 37°34' W 025°30'2 4.8
2018-May-19 04:00N 37°35' W 025°28'3 5.0
2018-May-19 03:30N 37°37' W 025°26'2 4.8
2018-May-19 03:00N 37°39' W 025°24'3 5.7
2018-May-19 02:30N 37°37' W 025°23'3 5.2
2018-May-19 02:00N 37°34' W 025°22'3 5.2
2018-May-19 01:30N 37°31' W 025°23'3 5.2
2018-May-19 01:00N 37°29' W 025°23'2 4.5
2018-May-19 00:30N 37°27' W 025°22'2 4.9
2018-May-19 00:00N 37°24' W 025°22'2 4.9
2018-May-18 23:30N 37°22' W 025°21'2 4.0
2018-May-18 23:00N 37°20' W 025°20'2 3.8
2018-May-18 22:30N 37°18' W 025°20'2 3.7
2018-May-18 22:00N 37°16' W 025°20'2 4.5
2018-May-18 21:30N 37°14' W 025°20'2 4.1
2018-May-18 21:01N 37°12' W 025°20'1 2.7
2018-May-18 20:30N 37°11' W 025°19'2 3.3
2018-May-18 20:00N 37°09' W 025°19'2 3.9
2018-May-18 19:31N 37°07' W 025°17'2 3.5
2018-May-18 19:00N 37°06' W 025°16'2 3.0
2018-May-18 18:30N 37°04' W 025°16'1 2.8
2018-May-18 18:01N 37°03' W 025°16'1 2.9
2018-May-18 17:30N 37°02' W 025°17'2 3.1
2018-May-18 17:00N 37°02' W 025°15'2 3.6
2018-May-18 16:30N 37°02' W 025°13'1 1.9
2018-May-18 16:00N 37°01' W 025°12'2 4.0
2018-May-18 15:30N 36°59' W 025°13'2 3.7
2018-May-18 15:00N 36°58' W 025°14'2 4.5
2018-May-18 14:30N 36°55' W 025°14'1 2.2
2018-May-18 14:00N 36°55' W 025°13'3 5.3
2018-May-18 13:30N 36°56' W 025°10'1 2.3
2018-May-18 12:55N 36°57' W 025°09'  
Track history (hours):
 
Tides and Currents Weather Stations Pressure Air Temp Water Temp Dewpoint Dewpoint Depression Visibility Wind Speed Wind Dir Waves Ship Positions

Baltic Dart

Last reported at 2018-May-19 09:59 UTC. Time now 2018-May-24 02:25 UTC.
Position N 37°44' W 025°40'.

Length 13 m.

Type: Sailing vessel. MMSI: 235115324.

Date/timePositionNaut miles runAvg speedWind from/ knotsBaromVisibWave heightAir tempDewpointWater temp
2018-May-19 09:59N 37°44' W 025°40'0 0.0
2018-May-19 09:29N 37°44' W 025°40'0 0.7
2018-May-19 09:00N 37°44' W 025°39'2 4.7
2018-May-19 08:30N 37°43' W 025°37'1 2.2
2018-May-19 08:00N 37°42' W 025°37'2 4.3
2018-May-19 07:30N 37°39' W 025°36'1 2.2
2018-May-19 07:00N 37°40' W 025°35'2 3.0
2018-May-19 06:30N 37°40' W 025°33'3 5.4
2018-May-19 06:00N 37°37' W 025°33'3 5.5
2018-May-19 05:30N 37°35' W 025°33'2 5.0
2018-May-19 05:00N 37°32' W 025°33'2 4.8
2018-May-19 04:30N 37°34' W 025°30'2 4.8
2018-May-19 04:00N 37°35' W 025°28'3 5.0
2018-May-19 03:30N 37°37' W 025°26'2 4.8
2018-May-19 03:00N 37°39' W 025°24'3 5.7
2018-May-19 02:30N 37°37' W 025°23'3 5.2
2018-May-19 02:00N 37°34' W 025°22'3 5.2
2018-May-19 01:30N 37°31' W 025°23'3 5.2
2018-May-19 01:00N 37°29' W 025°23'2 4.5
2018-May-19 00:30N 37°27' W 025°22'2 4.9
2018-May-19 00:00N 37°24' W 025°22'2 4.9
2018-May-18 23:30N 37°22' W 025°21'2 4.0
2018-May-18 23:00N 37°20' W 025°20'2 3.8
2018-May-18 22:30N 37°18' W 025°20'2 3.7
2018-May-18 22:00N 37°16' W 025°20'2 4.5
2018-May-18 21:30N 37°14' W 025°20'2 4.1
2018-May-18 21:01N 37°12' W 025°20'1 2.7
2018-May-18 20:30N 37°11' W 025°19'2 3.3
2018-May-18 20:00N 37°09' W 025°19'2 3.9
2018-May-18 19:31N 37°07' W 025°17'2 3.5
2018-May-18 19:00N 37°06' W 025°16'2 3.0
2018-May-18 18:30N 37°04' W 025°16'1 2.8
2018-May-18 18:01N 37°03' W 025°16'1 2.9
2018-May-18 17:30N 37°02' W 025°17'2 3.1
2018-May-18 17:00N 37°02' W 025°15'2 3.6
2018-May-18 16:30N 37°02' W 025°13'1 1.9
2018-May-18 16:00N 37°01' W 025°12'2 4.0
2018-May-18 15:30N 36°59' W 025°13'2 3.7
2018-May-18 15:00N 36°58' W 025°14'2 4.5
2018-May-18 14:30N 36°55' W 025°14'1 2.2
2018-May-18 14:00N 36°55' W 025°13'3 5.3
2018-May-18 13:30N 36°56' W 025°10'1 2.3
2018-May-18 12:55N 36°57' W 025°09'  

Dump ship's entire track history